< Typhoon 201814 2018 Season Typhoon 201816 >
Typhoon 201815 (LEEPI)
General InformationTrack Information on Google MapsDetailed Wind InformationForecast History on Google MapsAccess Analytics MapList of All Images || NewsDisaster Info.WeblogTrackbackTyphoon FrontTwiphoonTyphoon Now!Typhoon ImaginationJMA Disaster Info. XMLResourceGoogle EarthGE AnimationAtom FeedGeoJSON
Detalied Best Track (Time Zone = UTC)
Year Month Day Hour Lat. Long. Pressure (hPa) Wind (kt) Class Image Chart
2018 8 10 12 17.5 145.0 1006 0 2 Image Chart
2018 8 10 18 18.2 144.4 1004 0 2 Image Chart
2018 8 11 00 18.6 144.0 1004 0 2 Image Chart
2018 8 11 06 19.0 143.8 1004 0 2 Image Chart
2018 8 11 12 19.7 143.4 1000 35 3 Image Chart
2018 8 11 18 20.7 143.0 998 40 3 Image Chart
2018 8 12 00 21.4 142.7 998 40 3 Image Chart
2018 8 12 06 22.5 142.0 998 40 3 Image Chart
2018 8 12 12 23.4 141.2 998 40 3 Image Chart
2018 8 12 18 24.4 140.5 996 45 3 Image Chart
2018 8 13 00 25.3 139.9 996 45 3 Image Chart
2018 8 13 06 26.5 138.6 994 50 4 Image Chart
2018 8 13 12 27.1 138.2 994 50 4 Image Chart
2018 8 13 18 28.3 137.2 994 50 4 Image Chart
2018 8 14 00 29.4 136.2 994 50 4 Image Chart
2018 8 14 06 30.5 134.9 994 50 4 Image Chart
2018 8 14 09 30.9 134.1 994 50 4 Image Chart
2018 8 14 12 31.4 133.2 994 50 4 Image Chart
2018 8 14 15 31.8 132.4 996 45 3 Image Chart
2018 8 14 17 32.4 131.9 998 40 3 Image Chart
2018 8 14 18 32.5 131.4 1000 40 3 Image Chart
2018 8 14 21 33.2 130.6 1002 35 3 Image Chart
2018 8 15 00 33.9 130.0 1006 0 2 Image Chart
2018 8 15 06 34.9 129.4 1006 0 2 Image Chart
2018 8 15 12 35.7 129.3 1006 0 2 Image Chart
Japan Meteorological Agency Best Track Data | Correction Date : 2018-10-04
< Typhoon 201814 2018 Season Typhoon 201816 >

Help